createdAt,value
2019-03-04T00:03:48.353Z,99352.59
2019-03-04T00:06:15.602Z,99361.97
2019-03-04T00:08:54.867Z,99372.75
2019-03-04T00:11:22.024Z,99349.75
2019-03-04T00:13:49.223Z,99358.26
2019-03-04T00:22:18.962Z,99332.81
2019-03-04T00:27:54.377Z,99337.23
2019-03-04T00:30:21.532Z,99325.32
2019-03-04T00:32:48.924Z,99317.05
2019-03-04T00:35:16.158Z,99308.70
2019-03-04T00:37:43.344Z,99311.77
2019-03-04T00:40:10.520Z,99312.36
2019-03-04T00:42:37.772Z,99317.84
2019-03-04T00:45:45.778Z,99307.64
2019-03-04T00:48:13.009Z,99315.80
2019-03-04T00:51:21.147Z,99306.64
2019-03-04T00:53:48.447Z,99298.34
2019-03-04T00:56:15.627Z,99301.43
2019-03-04T00:58:42.841Z,99298.33
2019-03-04T01:01:50.854Z,99295.05
2019-03-04T01:10:53.048Z,99284.75
2019-03-04T01:16:21.259Z,99274.72
2019-03-04T01:18:48.423Z,99272.55
2019-03-04T01:21:15.721Z,99282.30
2019-03-04T01:26:23.388Z,99259.52
2019-03-04T01:28:50.624Z,99253.89
2019-03-04T01:31:17.798Z,99248.61
2019-03-04T01:34:16.748Z,99253.19
2019-03-04T01:36:43.925Z,99242.62
2019-03-04T01:39:11.090Z,99233.12
2019-03-04T01:42:19.140Z,99229.13
2019-03-04T01:44:46.302Z,99216.95
2019-03-04T01:47:13.741Z,99204.55
2019-03-04T01:50:21.782Z,99206.06
2019-03-04T01:52:48.935Z,99200.67
2019-03-04T01:55:56.993Z,99188.13
2019-03-04T01:58:24.155Z,99189.30
2019-03-04T02:00:51.353Z,99188.92
2019-03-04T02:05:58.952Z,99179.77
2019-03-04T02:08:26.105Z,99176.61
2019-03-04T02:10:53.271Z,99158.63
2019-03-04T02:13:20.452Z,99168.22
2019-03-04T02:24:30.463Z,99161.94
2019-03-04T02:27:30.186Z,99156.31
2019-03-04T02:29:57.365Z,99146.53
2019-03-04T02:32:25.072Z,99140.90
2019-03-04T02:34:52.248Z,99145.89
2019-03-04T02:37:38.936Z,99143.56
2019-03-04T02:43:26.711Z,99129.84
2019-03-04T02:45:53.908Z,99119.94
2019-03-04T02:48:40.575Z,99105.89
2019-03-04T02:51:27.266Z,99108.03
2019-03-04T02:53:54.476Z,99108.42
2019-03-04T02:56:21.633Z,99106.77
2019-03-04T02:58:48.860Z,99111.58
2019-03-04T03:03:56.504Z,99097.22
2019-03-04T03:07:04.568Z,99072.72
2019-03-04T03:09:32.127Z,99071.73
2019-03-04T03:12:40.164Z,99067.23
2019-03-04T03:18:59.400Z,99062.30
2019-03-04T03:28:00.984Z,99015.61
2019-03-04T03:30:28.171Z,99005.41
2019-03-04T03:32:55.671Z,98980.67
2019-03-04T03:35:22.859Z,98970.23
2019-03-04T03:41:55.714Z,98950.97
2019-03-04T03:53:45.684Z,98966.97
2019-03-04T03:56:12.880Z,98950.64
2019-03-04T03:58:52.005Z,98942.08
2019-03-04T04:01:19.152Z,98945.01
2019-03-04T04:07:00.612Z,98932.50
2019-03-04T04:09:27.796Z,98929.53
2019-03-04T04:11:54.946Z,98927.73
2019-03-04T04:14:29.769Z,98941.74
2019-03-04T04:23:00.485Z,98931.80
2019-03-04T04:25:27.704Z,98936.12
2019-03-04T04:27:54.900Z,98928.87
2019-03-04T04:31:02.954Z,98915.95
2019-03-04T04:33:49.563Z,98902.46
2019-03-04T04:36:16.776Z,98899.05
2019-03-04T04:38:44.293Z,98885.45
2019-03-04T04:41:11.476Z,98884.97
2019-03-04T04:43:38.658Z,98875.13
2019-03-04T04:52:08.360Z,98841.02
2019-03-04T04:54:48.258Z,98851.58
2019-03-04T04:57:15.453Z,98849.77
2019-03-04T04:59:42.654Z,98851.58
2019-03-04T05:02:09.818Z,98849.63
2019-03-04T05:04:37.012Z,98846.20
2019-03-04T05:13:08.641Z,98811.44
2019-03-04T05:15:55.572Z,98808.43
2019-03-04T05:18:22.783Z,98804.13
2019-03-04T05:27:11.164Z,98742.89
2019-03-04T05:29:58.091Z,98763.16
2019-03-04T05:32:25.305Z,98768.72
2019-03-04T05:34:52.463Z,98729.33
2019-03-04T05:43:00.692Z,98660.60
2019-03-04T05:45:27.855Z,98656.23
2019-03-04T05:47:54.943Z,98666.56
2019-03-04T05:53:02.860Z,98652.47
2019-03-04T05:55:30.098Z,98646.03
2019-03-04T06:09:46.471Z,98689.95
2019-03-04T06:12:13.625Z,98680.88
2019-03-04T06:14:40.811Z,98676.64
2019-03-04T06:20:54.461Z,98669.16
2019-03-04T06:27:01.676Z,98703.21
2019-03-04T06:35:31.451Z,98708.89
2019-03-04T06:37:58.662Z,98716.96
2019-03-04T06:40:25.846Z,98719.12
2019-03-04T06:48:56.087Z,98735.42
2019-03-04T06:55:41.038Z,98661.55
2019-03-04T06:58:08.206Z,98639.27
2019-03-04T07:01:14.350Z,98654.48
2019-03-04T07:06:54.693Z,98625.27
2019-03-04T07:09:21.858Z,98555.89
2019-03-04T07:11:52.671Z,98503.17
2019-03-04T07:14:19.868Z,98513.85
2019-03-04T07:20:22.433Z,98607.97
2019-03-04T07:23:01.644Z,98589.39
2019-03-04T07:25:28.853Z,98454.49
2019-03-04T07:28:15.600Z,98555.58
2019-03-04T07:30:43.099Z,98559.11
2019-03-04T07:36:30.573Z,98555.73
2019-03-04T07:39:30.235Z,98580.95
2019-03-04T07:42:10.435Z,98572.72
2019-03-04T07:50:50.863Z,98536.47
2019-03-04T07:53:19.143Z,98564.12
2019-03-04T07:55:56.981Z,98518.97
2019-03-04T07:58:25.832Z,98512.98
2019-03-04T08:04:03.985Z,98535.66
2019-03-04T08:06:31.510Z,98516.94
2019-03-04T08:09:37.622Z,98518.62
2019-03-04T08:12:43.728Z,98539.33
2019-03-04T08:15:10.934Z,98547.01
2019-03-04T08:17:37.997Z,98542.89
2019-03-04T08:23:10.120Z,98552.34
2019-03-04T08:25:43.459Z,98535.26
2019-03-04T08:28:52.411Z,98508.13
2019-03-04T08:34:19.839Z,98560.02
2019-03-04T08:36:47.013Z,98555.45
2019-03-04T08:39:14.528Z,98576.06
2019-03-04T08:41:41.740Z,98584.60
2019-03-04T08:44:08.950Z,98555.42
2019-03-04T08:47:16.970Z,98567.39
2019-03-04T08:49:44.161Z,98588.12
2019-03-04T08:52:11.309Z,98630.84
2019-03-04T08:54:38.531Z,98635.75
2019-03-04T08:57:05.690Z,98665.22
2019-03-04T08:59:32.922Z,98675.17
2019-03-04T09:02:00.112Z,98649.48
2019-03-04T09:04:27.279Z,98606.95
2019-03-04T09:06:54.614Z,98665.75
2019-03-04T09:09:21.813Z,98693.13
2019-03-04T09:11:48.997Z,98673.16
2019-03-04T09:17:17.427Z,98713.62
2019-03-04T09:19:44.905Z,98675.11
2019-03-04T09:22:23.727Z,98699.95
2019-03-04T09:28:25.412Z,98715.42
2019-03-04T09:30:52.656Z,98730.05
2019-03-04T09:33:19.887Z,98715.78
2019-03-04T09:35:47.681Z,98734.95
2019-03-04T09:38:15.408Z,98737.47
2019-03-04T09:40:44.393Z,98739.74
2019-03-04T09:43:11.601Z,98756.14
2019-03-04T09:48:40.527Z,98723.61
2019-03-04T09:51:07.880Z,98740.84
2019-03-04T09:57:10.858Z,98740.04
2019-03-04T09:59:39.460Z,98736.06
2019-03-04T10:02:49.332Z,98725.38
2019-03-04T10:05:39.273Z,98728.89
2019-03-04T10:08:45.499Z,98725.15
2019-03-04T10:11:51.583Z,98704.92
2019-03-04T10:15:07.547Z,98701.16
2019-03-04T10:17:52.437Z,98713.13
2019-03-04T10:24:38.914Z,98686.05
2019-03-04T10:27:45.057Z,98705.63
2019-03-04T10:34:07.210Z,98682.92
2019-03-04T10:40:19.458Z,98695.00
2019-03-04T10:43:25.636Z,98697.73
2019-03-04T10:46:32.165Z,98703.59
2019-03-04T10:48:59.419Z,98690.63
2019-03-04T10:51:46.231Z,98677.09
2019-03-04T10:54:13.434Z,98689.68
2019-03-04T10:56:42.430Z,98680.39
2019-03-04T10:59:16.230Z,98694.33
2019-03-04T11:01:55.155Z,98681.36
2019-03-04T11:04:22.418Z,98699.17
2019-03-04T11:06:49.809Z,98692.77
2019-03-04T11:09:17.046Z,98705.39
2019-03-04T11:12:25.109Z,98702.53
2019-03-04T11:14:52.269Z,98678.61
2019-03-04T11:17:19.365Z,98707.64
2019-03-04T11:19:46.723Z,98690.92
2019-03-04T11:28:49.090Z,98687.48
2019-03-04T11:31:16.741Z,98664.30
2019-03-04T11:33:43.960Z,98661.63
2019-03-04T11:36:11.189Z,98652.08
2019-03-04T11:41:52.931Z,98640.09
2019-03-04T11:50:42.048Z,98621.35
2019-03-04T11:53:09.221Z,98625.22
2019-03-04T11:55:36.414Z,98624.89
2019-03-04T12:04:46.714Z,98624.52
2019-03-04T12:07:13.913Z,98609.95
2019-03-04T12:09:41.149Z,98607.85
2019-03-04T12:15:44.874Z,98599.02
2019-03-04T12:21:32.452Z,98620.28
2019-03-04T12:27:00.781Z,98591.17
2019-03-04T12:29:27.985Z,98603.69
2019-03-04T12:34:46.927Z,98604.80
2019-03-04T12:37:14.463Z,98621.22
2019-03-04T12:39:41.666Z,98623.72
2019-03-04T12:51:05.148Z,98607.09
2019-03-04T12:53:37.238Z,98604.91
2019-03-04T12:56:11.047Z,98601.88
2019-03-04T12:58:40.358Z,98634.28
2019-03-04T13:01:54.052Z,98618.22
2019-03-04T13:04:21.582Z,98620.67
2019-03-04T13:09:49.747Z,98642.83
2019-03-04T13:15:32.290Z,98648.09
2019-03-04T13:17:59.376Z,98671.64
2019-03-04T13:20:27.194Z,98706.09
2019-03-04T13:22:54.389Z,98648.20
2019-03-04T13:28:42.510Z,98652.91
2019-03-04T13:31:21.435Z,98680.08
2019-03-04T13:36:41.027Z,98686.42
2019-03-04T13:39:08.187Z,98686.11
2019-03-04T13:42:17.180Z,98709.00
2019-03-04T13:48:17.149Z,98702.95
2019-03-04T13:53:56.846Z,98702.95
2019-03-04T13:59:25.137Z,98687.48
2019-03-04T14:01:52.357Z,98686.64
2019-03-04T14:04:20.013Z,98687.51
2019-03-04T14:10:01.720Z,98697.97
2019-03-04T14:12:30.756Z,98711.83
2019-03-04T14:14:57.952Z,98712.80
2019-03-04T14:17:25.186Z,98746.22
2019-03-04T14:19:52.341Z,98744.72
2019-03-04T14:23:00.406Z,98753.96
2019-03-04T14:28:59.377Z,98777.02
2019-03-04T14:31:26.576Z,98762.18
2019-03-04T14:34:34.615Z,98765.33
2019-03-04T14:37:03.369Z,98773.22
2019-03-04T14:39:37.287Z,98765.97
2019-03-04T14:51:19.500Z,98744.73
2019-03-04T14:53:46.991Z,98751.33
2019-03-04T14:56:22.031Z,98743.09
2019-03-04T14:59:10.979Z,98761.22
2019-03-04T15:01:44.799Z,98780.47
2019-03-04T15:04:12.003Z,98774.37
2019-03-04T15:06:39.651Z,98809.63
2019-03-04T15:09:49.534Z,98827.56
2019-03-04T15:12:37.028Z,98852.91
2019-03-04T15:15:04.442Z,98874.06
2019-03-04T15:17:31.542Z,98874.09
2019-03-04T15:20:08.545Z,98861.61
2019-03-04T15:23:28.420Z,98882.18
2019-03-04T15:29:15.699Z,98908.10
2019-03-04T15:38:05.426Z,98896.75
2019-03-04T15:47:01.462Z,98916.70
2019-03-04T15:50:09.481Z,98914.03
2019-03-04T15:52:48.611Z,98922.10
2019-03-04T15:55:15.773Z,98945.07
2019-03-04T15:58:23.801Z,98951.84
2019-03-04T16:04:36.962Z,98974.09
2019-03-04T16:10:40.633Z,98999.45
2019-03-04T16:13:39.652Z,98999.66
2019-03-04T16:16:07.188Z,99021.22
2019-03-04T16:21:36.035Z,99044.55
2019-03-04T16:27:27.687Z,99055.86
2019-03-04T16:29:54.859Z,99058.76
2019-03-04T16:32:21.885Z,99063.45
2019-03-04T16:34:49.092Z,99074.81
2019-03-04T16:37:16.252Z,99083.93
2019-03-04T16:40:24.364Z,99090.19
2019-03-04T16:46:23.861Z,99109.23
2019-03-04T16:52:27.778Z,99116.66
2019-03-04T16:57:55.941Z,99137.00
2019-03-04T17:00:23.578Z,99140.45
2019-03-04T17:03:03.045Z,99154.64
2019-03-04T17:08:50.259Z,99160.67
2019-03-04T17:11:17.540Z,99168.60
2019-03-04T17:13:44.734Z,99176.73
2019-03-04T17:19:13.540Z,99198.05
2019-03-04T17:21:40.727Z,99194.86
2019-03-04T17:24:08.207Z,99207.64
2019-03-04T17:26:47.020Z,99209.30
2019-03-04T17:29:14.165Z,99218.58
2019-03-04T17:31:41.697Z,99221.71
2019-03-04T17:34:09.240Z,99232.02
2019-03-04T17:36:36.419Z,99236.73
2019-03-04T17:39:45.222Z,99245.09
2019-03-04T17:51:29.186Z,99263.09
2019-03-04T17:57:04.748Z,99272.36
2019-03-04T17:59:51.379Z,99275.13
2019-03-04T18:02:30.350Z,99275.44
2019-03-04T18:04:58.405Z,99280.70
2019-03-04T18:07:26.891Z,99286.53
2019-03-04T18:10:13.793Z,99291.27
2019-03-04T18:12:40.969Z,99290.68
2019-03-04T18:21:12.651Z,99304.00
2019-03-04T18:23:39.835Z,99301.73
2019-03-04T18:26:40.616Z,99304.97
2019-03-04T18:29:46.704Z,99308.92
2019-03-04T18:32:52.840Z,99311.86
2019-03-04T18:42:11.863Z,99328.63
2019-03-04T18:45:17.991Z,99335.69
2019-03-04T18:48:24.086Z,99337.81
2019-03-04T18:50:51.112Z,99337.84
2019-03-04T18:53:18.723Z,99347.88
2019-03-04T18:55:45.918Z,99351.46
2019-03-04T19:01:26.494Z,99357.62
2019-03-04T19:03:53.665Z,99377.67
2019-03-04T19:06:20.879Z,99379.62
2019-03-04T19:11:49.624Z,99386.91
2019-03-04T19:17:17.821Z,99394.70
2019-03-04T19:28:48.837Z,99413.84
2019-03-04T19:31:56.900Z,99420.95
2019-03-04T19:34:24.118Z,99419.73
2019-03-04T19:36:54.201Z,99427.39
2019-03-04T19:42:34.562Z,99434.73
2019-03-04T19:45:02.089Z,99442.45
2019-03-04T19:47:50.568Z,99441.34
2019-03-04T19:50:17.973Z,99440.94
2019-03-04T19:52:45.371Z,99444.86
2019-03-04T19:58:14.313Z,99446.98
2019-03-04T20:04:02.171Z,99450.09
2019-03-04T20:06:29.579Z,99453.31
2019-03-04T20:09:37.802Z,99449.23
2019-03-04T20:12:18.019Z,99448.52
2019-03-04T20:17:46.694Z,99445.26
2019-03-04T20:20:14.177Z,99450.49
2019-03-04T20:22:54.328Z,99441.09
2019-03-04T20:26:02.511Z,99451.66
2019-03-04T20:31:31.191Z,99446.58
2019-03-04T20:34:39.175Z,99447.29
2019-03-04T20:37:07.156Z,99438.75
2019-03-04T20:40:15.151Z,99447.14
2019-03-04T20:43:02.288Z,99447.78
2019-03-04T20:45:30.069Z,99438.37
2019-03-04T20:47:57.243Z,99453.59
2019-03-04T20:51:05.281Z,99455.25
2019-03-04T20:53:33.142Z,99448.34
2019-03-04T20:56:00.693Z,99454.91
2019-03-04T20:58:36.050Z,99460.83
2019-03-04T21:04:16.465Z,99450.99
2019-03-04T21:13:21.980Z,99454.52
2019-03-04T21:22:10.542Z,99470.09
2019-03-04T21:24:37.708Z,99473.52
2019-03-04T21:27:45.736Z,99473.88
2019-03-04T21:37:47.489Z,99485.08
2019-03-04T21:40:24.928Z,99493.14
2019-03-04T21:43:32.847Z,99498.25
2019-03-04T21:46:39.043Z,99501.83
2019-03-04T21:49:48.253Z,99503.69
2019-03-04T21:56:18.927Z,99502.95
2019-03-04T22:05:03.908Z,99513.77
2019-03-04T22:07:50.547Z,99508.91
2019-03-04T22:10:58.557Z,99518.88
2019-03-04T22:13:25.798Z,99519.50
2019-03-04T22:16:04.804Z,99526.06
2019-03-04T22:21:51.765Z,99509.53
2019-03-04T22:24:18.972Z,99533.47
2019-03-04T22:26:46.145Z,99528.66
2019-03-04T22:29:13.920Z,99531.66
2019-03-04T22:35:01.393Z,99542.42
2019-03-04T22:37:30.424Z,99538.47
2019-03-04T22:39:57.736Z,99540.83
2019-03-04T22:42:24.968Z,99551.08
2019-03-04T22:53:33.843Z,99543.31
2019-03-04T22:59:09.232Z,99553.86
2019-03-04T23:05:24.678Z,99556.55
2019-03-04T23:14:19.587Z,99581.14
2019-03-04T23:16:46.813Z,99591.66
2019-03-04T23:19:14.265Z,99589.75
2019-03-04T23:21:41.513Z,99602.72
2019-03-04T23:24:08.679Z,99609.84
2019-03-04T23:26:35.883Z,99608.61
2019-03-04T23:29:03.193Z,99609.33
2019-03-04T23:34:31.775Z,99620.64
2019-03-04T23:37:39.782Z,99613.55
2019-03-04T23:40:39.450Z,99622.00
2019-03-04T23:43:06.593Z,99626.41
2019-03-04T23:45:33.747Z,99629.04
2019-03-04T23:48:41.664Z,99622.24
2019-03-04T23:54:54.334Z,99622.47
